sensor_id;sensor_type;location;lat;lon;timestamp;P1;durP1;ratioP1;P2;durP2;ratioP2
25509;SDS011;13413;52.336;21.200;2022-12-04T00:06:03;107.40;;;41.80;;
25509;SDS011;13413;52.336;21.200;2022-12-04T00:09:37;106.60;;;42.70;;
25509;SDS011;13413;52.336;21.200;2022-12-04T00:12:57;98.30;;;40.80;;
25509;SDS011;13413;52.336;21.200;2022-12-04T00:16:19;112.50;;;45.60;;
25509;SDS011;13413;52.336;21.200;2022-12-04T00:19:56;107.70;;;43.40;;
25509;SDS011;13413;52.336;21.200;2022-12-04T00:23:28;94.30;;;42.30;;
25509;SDS011;13413;52.336;21.200;2022-12-04T00:26:48;99.40;;;43.10;;
25509;SDS011;13413;52.336;21.200;2022-12-04T00:30:23;100.60;;;42.20;;
25509;SDS011;13413;52.336;21.200;2022-12-04T00:33:55;107.50;;;44.40;;
25509;SDS011;13413;52.336;21.200;2022-12-04T00:37:15;109.80;;;45.20;;
25509;SDS011;13413;52.336;21.200;2022-12-04T00:40:35;94.40;;;40.60;;
25509;SDS011;13413;52.336;21.200;2022-12-04T00:49:57;96.80;;;40.50;;
25509;SDS011;13413;52.336;21.200;2022-12-04T00:53:17;92.10;;;40.70;;
25509;SDS011;13413;52.336;21.200;2022-12-04T00:56:39;110.90;;;45.10;;
25509;SDS011;13413;52.336;21.200;2022-12-04T01:00:13;88.00;;;40.10;;
25509;SDS011;13413;52.336;21.200;2022-12-04T01:03:46;110.70;;;45.40;;
25509;SDS011;13413;52.336;21.200;2022-12-04T01:07:07;104.30;;;43.90;;
25509;SDS011;13413;52.336;21.200;2022-12-04T01:19:40;105.20;;;42.90;;
25509;SDS011;13413;52.336;21.200;2022-12-04T01:23:00;90.00;;;40.10;;
25509;SDS011;13413;52.336;21.200;2022-12-04T01:26:19;110.40;;;45.10;;
25509;SDS011;13413;52.336;21.200;2022-12-04T01:29:53;103.60;;;43.10;;
25509;SDS011;13413;52.336;21.200;2022-12-04T01:33:13;109.80;;;43.10;;
25509;SDS011;13413;52.336;21.200;2022-12-04T01:36:32;107.90;;;44.30;;
25509;SDS011;13413;52.336;21.200;2022-12-04T01:39:58;104.80;;;44.50;;
25509;SDS011;13413;52.336;21.200;2022-12-04T01:43:17;110.80;;;43.80;;
25509;SDS011;13413;52.336;21.200;2022-12-04T01:46:38;106.60;;;43.90;;
25509;SDS011;13413;52.336;21.200;2022-12-04T01:50:12;102.80;;;44.10;;
25509;SDS011;13413;52.336;21.200;2022-12-04T01:53:46;94.40;;;40.50;;
25509;SDS011;13413;52.336;21.200;2022-12-04T01:57:10;98.90;;;43.10;;
25509;SDS011;13413;52.336;21.200;2022-12-04T02:00:39;92.40;;;41.00;;
25509;SDS011;13413;52.336;21.200;2022-12-04T02:04:12;101.90;;;41.20;;
25509;SDS011;13413;52.336;21.200;2022-12-04T02:07:38;101.90;;;41.60;;
25509;SDS011;13413;52.336;21.200;2022-12-04T02:11:11;94.70;;;41.20;;
25509;SDS011;13413;52.336;21.200;2022-12-04T02:14:39;100.80;;;42.20;;
25509;SDS011;13413;52.336;21.200;2022-12-04T02:18:08;110.40;;;44.00;;
25509;SDS011;13413;52.336;21.200;2022-12-04T02:21:46;107.90;;;45.40;;
25509;SDS011;13413;52.336;21.200;2022-12-04T02:25:36;91.30;;;41.90;;
25509;SDS011;13413;52.336;21.200;2022-12-04T02:29:04;106.00;;;43.30;;
25509;SDS011;13413;52.336;21.200;2022-12-04T02:32:30;99.00;;;41.40;;
25509;SDS011;13413;52.336;21.200;2022-12-04T02:35:58;94.50;;;39.60;;
25509;SDS011;13413;52.336;21.200;2022-12-04T02:39:23;105.40;;;40.20;;
25509;SDS011;13413;52.336;21.200;2022-12-04T02:42:48;91.20;;;41.00;;
25509;SDS011;13413;52.336;21.200;2022-12-04T02:46:15;98.10;;;41.40;;
25509;SDS011;13413;52.336;21.200;2022-12-04T02:59:01;86.30;;;38.80;;
25509;SDS011;13413;52.336;21.200;2022-12-04T03:02:23;86.70;;;36.40;;
25509;SDS011;13413;52.336;21.200;2022-12-04T03:09:11;80.30;;;36.30;;
25509;SDS011;13413;52.336;21.200;2022-12-04T03:12:37;95.10;;;38.60;;
25509;SDS011;13413;52.336;21.200;2022-12-04T03:29:23;90.70;;;37.60;;
25509;SDS011;13413;52.336;21.200;2022-12-04T03:33:05;88.80;;;38.90;;
25509;SDS011;13413;52.336;21.200;2022-12-04T03:39:52;90.80;;;34.80;;
25509;SDS011;13413;52.336;21.200;2022-12-04T03:43:19;90.30;;;37.00;;
25509;SDS011;13413;52.336;21.200;2022-12-04T03:50:22;62.90;;;25.00;;
25509;SDS011;13413;52.336;21.200;2022-12-04T03:54:04;83.00;;;34.20;;
25509;SDS011;13413;52.336;21.200;2022-12-04T03:57:37;89.90;;;37.20;;
25509;SDS011;13413;52.336;21.200;2022-12-04T04:01:09;96.00;;;36.80;;
25509;SDS011;13413;52.336;21.200;2022-12-04T04:04:34;65.00;;;27.30;;
25509;SDS011;13413;52.336;21.200;2022-12-04T04:08:12;94.10;;;36.70;;
25509;SDS011;13413;52.336;21.200;2022-12-04T04:11:34;89.60;;;35.90;;
25509;SDS011;13413;52.336;21.200;2022-12-04T04:15:21;84.30;;;36.10;;
25509;SDS011;13413;52.336;21.200;2022-12-04T04:18:40;83.80;;;33.60;;
25509;SDS011;13413;52.336;21.200;2022-12-04T04:22:01;76.40;;;32.60;;
25509;SDS011;13413;52.336;21.200;2022-12-04T04:25:33;79.80;;;35.30;;
25509;SDS011;13413;52.336;21.200;2022-12-04T04:28:57;86.20;;;34.90;;
25509;SDS011;13413;52.336;21.200;2022-12-04T04:32:18;73.70;;;34.00;;
25509;SDS011;13413;52.336;21.200;2022-12-04T04:35:50;85.90;;;34.60;;
25509;SDS011;13413;52.336;21.200;2022-12-04T04:39:23;86.50;;;35.30;;
25509;SDS011;13413;52.336;21.200;2022-12-04T04:42:49;90.10;;;35.70;;
25509;SDS011;13413;52.336;21.200;2022-12-04T04:46:17;90.70;;;36.50;;
25509;SDS011;13413;52.336;21.200;2022-12-04T04:49:47;93.70;;;36.30;;
25509;SDS011;13413;52.336;21.200;2022-12-04T04:53:10;86.50;;;36.10;;
25509;SDS011;13413;52.336;21.200;2022-12-04T04:56:39;91.30;;;37.10;;
25509;SDS011;13413;52.336;21.200;2022-12-04T05:00:15;86.00;;;37.90;;
25509;SDS011;13413;52.336;21.200;2022-12-04T05:03:52;86.80;;;35.20;;
25509;SDS011;13413;52.336;21.200;2022-12-04T05:07:12;71.80;;;29.30;;
25509;SDS011;13413;52.336;21.200;2022-12-04T05:24:12;80.50;;;36.00;;
25509;SDS011;13413;52.336;21.200;2022-12-04T05:27:31;77.80;;;34.70;;
25509;SDS011;13413;52.336;21.200;2022-12-04T05:30:54;80.00;;;34.70;;
25509;SDS011;13413;52.336;21.200;2022-12-04T05:34:28;68.10;;;32.90;;
25509;SDS011;13413;52.336;21.200;2022-12-04T05:37:55;81.50;;;34.30;;
25509;SDS011;13413;52.336;21.200;2022-12-04T05:41:15;80.30;;;33.80;;
25509;SDS011;13413;52.336;21.200;2022-12-04T05:44:48;91.00;;;33.10;;
25509;SDS011;13413;52.336;21.200;2022-12-04T05:48:08;80.90;;;35.80;;
25509;SDS011;13413;52.336;21.200;2022-12-04T05:51:44;67.40;;;31.80;;
25509;SDS011;13413;52.336;21.200;2022-12-04T05:55:18;73.50;;;31.50;;
25509;SDS011;13413;52.336;21.200;2022-12-04T05:58:52;76.20;;;33.80;;
25509;SDS011;13413;52.336;21.200;2022-12-04T06:02:10;79.00;;;33.80;;
25509;SDS011;13413;52.336;21.200;2022-12-04T06:05:43;79.60;;;32.10;;
25509;SDS011;13413;52.336;21.200;2022-12-04T06:09:09;74.50;;;32.90;;
25509;SDS011;13413;52.336;21.200;2022-12-04T06:12:29;78.10;;;34.80;;
25509;SDS011;13413;52.336;21.200;2022-12-04T06:15:48;77.60;;;35.70;;
25509;SDS011;13413;52.336;21.200;2022-12-04T06:19:09;67.90;;;31.50;;
25509;SDS011;13413;52.336;21.200;2022-12-04T06:22:31;75.30;;;31.80;;
25509;SDS011;13413;52.336;21.200;2022-12-04T06:25:50;85.50;;;33.70;;
25509;SDS011;13413;52.336;21.200;2022-12-04T06:31:04;89.80;;;37.30;;
25509;SDS011;13413;52.336;21.200;2022-12-04T06:34:22;77.40;;;34.50;;
25509;SDS011;13413;52.336;21.200;2022-12-04T06:37:40;79.40;;;32.60;;
25509;SDS011;13413;52.336;21.200;2022-12-04T06:41:00;90.50;;;35.10;;
25509;SDS011;13413;52.336;21.200;2022-12-04T06:50:13;83.50;;;34.30;;
25509;SDS011;13413;52.336;21.200;2022-12-04T06:53:33;80.80;;;34.70;;
25509;SDS011;13413;52.336;21.200;2022-12-04T06:56:54;79.80;;;33.70;;
25509;SDS011;13413;52.336;21.200;2022-12-04T07:00:14;76.40;;;32.40;;
25509;SDS011;13413;52.336;21.200;2022-12-04T07:03:49;74.50;;;34.80;;
25509;SDS011;13413;52.336;21.200;2022-12-04T07:07:09;81.40;;;34.10;;
25509;SDS011;13413;52.336;21.200;2022-12-04T07:24:10;70.20;;;33.40;;
25509;SDS011;13413;52.336;21.200;2022-12-04T07:27:32;75.00;;;33.50;;
25509;SDS011;13413;52.336;21.200;2022-12-04T07:30:52;79.20;;;33.80;;
25509;SDS011;13413;52.336;21.200;2022-12-04T07:35:53;74.10;;;33.60;;
25509;SDS011;13413;52.336;21.200;2022-12-04T07:39:13;76.60;;;36.40;;
25509;SDS011;13413;52.336;21.200;2022-12-04T07:42:33;89.60;;;39.80;;
25509;SDS011;13413;52.336;21.200;2022-12-04T07:45:52;89.90;;;43.40;;
25509;SDS011;13413;52.336;21.200;2022-12-04T07:49:12;86.70;;;39.20;;
25509;SDS011;13413;52.336;21.200;2022-12-04T07:52:39;88.90;;;41.00;;
25509;SDS011;13413;52.336;21.200;2022-12-04T07:55:59;75.40;;;37.50;;
25509;SDS011;13413;52.336;21.200;2022-12-04T07:59:19;78.80;;;40.60;;
25509;SDS011;13413;52.336;21.200;2022-12-04T08:02:39;80.20;;;38.10;;
25509;SDS011;13413;52.336;21.200;2022-12-04T08:05:59;79.40;;;37.90;;
25509;SDS011;13413;52.336;21.200;2022-12-04T08:09:19;76.90;;;36.70;;
25509;SDS011;13413;52.336;21.200;2022-12-04T08:12:38;73.50;;;34.80;;
25509;SDS011;13413;52.336;21.200;2022-12-04T08:16:01;67.40;;;32.30;;
25509;SDS011;13413;52.336;21.200;2022-12-04T08:19:20;74.60;;;35.90;;
25509;SDS011;13413;52.336;21.200;2022-12-04T08:22:40;69.60;;;36.70;;
25509;SDS011;13413;52.336;21.200;2022-12-04T08:31:02;62.30;;;32.10;;
25509;SDS011;13413;52.336;21.200;2022-12-04T08:34:23;69.00;;;34.30;;
25509;SDS011;13413;52.336;21.200;2022-12-04T08:37:49;60.00;;;31.00;;
25509;SDS011;13413;52.336;21.200;2022-12-04T08:41:10;79.80;;;33.60;;
25509;SDS011;13413;52.336;21.200;2022-12-04T08:45:55;69.60;;;33.40;;
25509;SDS011;13413;52.336;21.200;2022-12-04T08:49:15;74.80;;;36.00;;
25509;SDS011;13413;52.336;21.200;2022-12-04T08:56:12;69.80;;;32.50;;
25509;SDS011;13413;52.336;21.200;2022-12-04T09:04:40;65.10;;;35.50;;
25509;SDS011;13413;52.336;21.200;2022-12-04T09:07:59;63.50;;;32.50;;
25509;SDS011;13413;52.336;21.200;2022-12-04T09:11:18;59.00;;;31.10;;
25509;SDS011;13413;52.336;21.200;2022-12-04T09:14:37;64.70;;;33.60;;
25509;SDS011;13413;52.336;21.200;2022-12-04T09:17:56;62.30;;;33.10;;
25509;SDS011;13413;52.336;21.200;2022-12-04T09:21:28;69.40;;;34.40;;
25509;SDS011;13413;52.336;21.200;2022-12-04T09:25:09;66.30;;;32.60;;
25509;SDS011;13413;52.336;21.200;2022-12-04T09:28:28;65.80;;;32.70;;
25509;SDS011;13413;52.336;21.200;2022-12-04T09:31:50;63.10;;;34.70;;
25509;SDS011;13413;52.336;21.200;2022-12-04T09:35:24;66.20;;;29.90;;
25509;SDS011;13413;52.336;21.200;2022-12-04T09:38:44;63.50;;;33.30;;
25509;SDS011;13413;52.336;21.200;2022-12-04T09:42:13;69.90;;;34.70;;
25509;SDS011;13413;52.336;21.200;2022-12-04T09:45:50;59.70;;;33.60;;
25509;SDS011;13413;52.336;21.200;2022-12-04T09:49:48;64.30;;;34.40;;
25509;SDS011;13413;52.336;21.200;2022-12-04T09:53:30;57.60;;;31.00;;
25509;SDS011;13413;52.336;21.200;2022-12-04T09:57:00;74.10;;;36.20;;
25509;SDS011;13413;52.336;21.200;2022-12-04T10:00:28;68.70;;;35.10;;
25509;SDS011;13413;52.336;21.200;2022-12-04T10:03:53;73.40;;;38.40;;
25509;SDS011;13413;52.336;21.200;2022-12-04T10:07:13;71.30;;;36.60;;
25509;SDS011;13413;52.336;21.200;2022-12-04T10:10:37;72.70;;;35.20;;
25509;SDS011;13413;52.336;21.200;2022-12-04T10:14:09;64.40;;;36.50;;
25509;SDS011;13413;52.336;21.200;2022-12-04T10:17:44;63.00;;;34.50;;
25509;SDS011;13413;52.336;21.200;2022-12-04T10:21:22;70.50;;;37.00;;
25509;SDS011;13413;52.336;21.200;2022-12-04T10:25:02;70.00;;;37.00;;
25509;SDS011;13413;52.336;21.200;2022-12-04T10:28:29;71.10;;;37.80;;
25509;SDS011;13413;52.336;21.200;2022-12-04T10:31:58;67.40;;;36.50;;
25509;SDS011;13413;52.336;21.200;2022-12-04T10:35:35;81.80;;;44.70;;
25509;SDS011;13413;52.336;21.200;2022-12-04T10:38:59;80.00;;;42.20;;
25509;SDS011;13413;52.336;21.200;2022-12-04T10:42:42;64.30;;;37.60;;
25509;SDS011;13413;52.336;21.200;2022-12-04T10:46:08;69.30;;;37.60;;
25509;SDS011;13413;52.336;21.200;2022-12-04T10:49:45;71.10;;;39.40;;
25509;SDS011;13413;52.336;21.200;2022-12-04T10:53:18;59.20;;;34.70;;
25509;SDS011;13413;52.336;21.200;2022-12-04T10:56:50;68.20;;;36.70;;
25509;SDS011;13413;52.336;21.200;2022-12-04T11:00:24;56.30;;;35.20;;
25509;SDS011;13413;52.336;21.200;2022-12-04T11:03:56;57.30;;;33.20;;
25509;SDS011;13413;52.336;21.200;2022-12-04T11:07:20;59.50;;;34.70;;
25509;SDS011;13413;52.336;21.200;2022-12-04T11:24:21;55.30;;;30.70;;
25509;SDS011;13413;52.336;21.200;2022-12-04T11:27:54;53.70;;;29.00;;
25509;SDS011;13413;52.336;21.200;2022-12-04T11:31:17;47.50;;;28.90;;
25509;SDS011;13413;52.336;21.200;2022-12-04T11:34:39;61.00;;;33.30;;
25509;SDS011;13413;52.336;21.200;2022-12-04T11:44:28;53.00;;;29.70;;
25509;SDS011;13413;52.336;21.200;2022-12-04T11:47:52;54.80;;;31.10;;
25509;SDS011;13413;52.336;21.200;2022-12-04T11:51:14;57.20;;;30.60;;
25509;SDS011;13413;52.336;21.200;2022-12-04T11:54:59;41.30;;;24.10;;
25509;SDS011;13413;52.336;21.200;2022-12-04T11:58:25;58.90;;;31.90;;
25509;SDS011;13413;52.336;21.200;2022-12-04T12:01:55;56.30;;;31.40;;
25509;SDS011;13413;52.336;21.200;2022-12-04T12:09:39;59.50;;;30.70;;
25509;SDS011;13413;52.336;21.200;2022-12-04T12:16:57;58.30;;;32.90;;
25509;SDS011;13413;52.336;21.200;2022-12-04T12:20:32;58.30;;;31.80;;
25509;SDS011;13413;52.336;21.200;2022-12-04T12:23:58;61.20;;;33.00;;
25509;SDS011;13413;52.336;21.200;2022-12-04T12:27:49;63.30;;;31.50;;
25509;SDS011;13413;52.336;21.200;2022-12-04T12:49:10;58.70;;;31.70;;
25509;SDS011;13413;52.336;21.200;2022-12-04T12:52:42;70.20;;;34.60;;
25509;SDS011;13413;52.336;21.200;2022-12-04T12:56:09;63.00;;;32.50;;
25509;SDS011;13413;52.336;21.200;2022-12-04T13:13:16;54.40;;;30.50;;
25509;SDS011;13413;52.336;21.200;2022-12-04T13:20:00;49.70;;;29.30;;
25509;SDS011;13413;52.336;21.200;2022-12-04T13:23:29;48.90;;;29.00;;
25509;SDS011;13413;52.336;21.200;2022-12-04T13:27:01;46.30;;;28.40;;
25509;SDS011;13413;52.336;21.200;2022-12-04T13:33:59;45.20;;;28.10;;
25509;SDS011;13413;52.336;21.200;2022-12-04T13:37:41;47.10;;;29.50;;
25509;SDS011;13413;52.336;21.200;2022-12-04T13:41:16;46.90;;;28.60;;
25509;SDS011;13413;52.336;21.200;2022-12-04T13:44:54;49.10;;;31.30;;
25509;SDS011;13413;52.336;21.200;2022-12-04T13:48:31;47.50;;;29.00;;
25509;SDS011;13413;52.336;21.200;2022-12-04T13:51:54;55.50;;;31.70;;
25509;SDS011;13413;52.336;21.200;2022-12-04T13:55:23;45.60;;;29.00;;
25509;SDS011;13413;52.336;21.200;2022-12-04T13:58:44;47.20;;;30.90;;
25509;SDS011;13413;52.336;21.200;2022-12-04T14:02:23;45.40;;;28.20;;
25509;SDS011;13413;52.336;21.200;2022-12-04T14:05:50;44.50;;;27.00;;
25509;SDS011;13413;52.336;21.200;2022-12-04T14:09:19;46.60;;;27.00;;
25509;SDS011;13413;52.336;21.200;2022-12-04T14:12:51;44.60;;;27.40;;
25509;SDS011;13413;52.336;21.200;2022-12-04T14:16:18;44.90;;;27.30;;
25509;SDS011;13413;52.336;21.200;2022-12-04T14:19:51;45.00;;;26.90;;
25509;SDS011;13413;52.336;21.200;2022-12-04T14:23:32;44.10;;;27.90;;
25509;SDS011;13413;52.336;21.200;2022-12-04T14:26:54;45.40;;;28.40;;
25509;SDS011;13413;52.336;21.200;2022-12-04T14:30:24;47.90;;;29.50;;
25509;SDS011;13413;52.336;21.200;2022-12-04T14:34:02;61.00;;;34.00;;
25509;SDS011;13413;52.336;21.200;2022-12-04T14:37:30;58.60;;;34.70;;
25509;SDS011;13413;52.336;21.200;2022-12-04T14:40:54;54.20;;;32.10;;
25509;SDS011;13413;52.336;21.200;2022-12-04T14:44:28;60.90;;;31.60;;
25509;SDS011;13413;52.336;21.200;2022-12-04T14:47:49;53.20;;;32.70;;
25509;SDS011;13413;52.336;21.200;2022-12-04T14:51:32;47.00;;;27.90;;
25509;SDS011;13413;52.336;21.200;2022-12-04T14:55:11;47.80;;;28.50;;
25509;SDS011;13413;52.336;21.200;2022-12-04T14:58:38;54.10;;;30.70;;
25509;SDS011;13413;52.336;21.200;2022-12-04T15:01:59;49.00;;;30.70;;
25509;SDS011;13413;52.336;21.200;2022-12-04T15:05:21;51.70;;;28.30;;
25509;SDS011;13413;52.336;21.200;2022-12-04T15:08:58;42.90;;;27.70;;
25509;SDS011;13413;52.336;21.200;2022-12-04T15:12:20;52.30;;;30.10;;
25509;SDS011;13413;52.336;21.200;2022-12-04T15:15:47;58.30;;;32.70;;
25509;SDS011;13413;52.336;21.200;2022-12-04T15:32:44;49.00;;;29.60;;
25509;SDS011;13413;52.336;21.200;2022-12-04T15:40:38;44.70;;;28.80;;
25509;SDS011;13413;52.336;21.200;2022-12-04T15:47:50;42.50;;;27.20;;
25509;SDS011;13413;52.336;21.200;2022-12-04T15:51:10;44.10;;;28.20;;
25509;SDS011;13413;52.336;21.200;2022-12-04T15:54:32;49.70;;;27.40;;
25509;SDS011;13413;52.336;21.200;2022-12-04T15:58:07;45.20;;;26.80;;
25509;SDS011;13413;52.336;21.200;2022-12-04T16:01:38;48.50;;;29.40;;
25509;SDS011;13413;52.336;21.200;2022-12-04T16:05:21;44.40;;;27.00;;
25509;SDS011;13413;52.336;21.200;2022-12-04T16:08:48;42.90;;;25.90;;
25509;SDS011;13413;52.336;21.200;2022-12-04T16:12:15;46.50;;;28.30;;
25509;SDS011;13413;52.336;21.200;2022-12-04T16:15:47;50.10;;;29.70;;
25509;SDS011;13413;52.336;21.200;2022-12-04T16:19:23;47.50;;;28.70;;
25509;SDS011;13413;52.336;21.200;2022-12-04T16:43:53;44.20;;;27.50;;
25509;SDS011;13413;52.336;21.200;2022-12-04T16:47:15;47.30;;;26.20;;
25509;SDS011;13413;52.336;21.200;2022-12-04T16:50:43;43.30;;;27.50;;
25509;SDS011;13413;52.336;21.200;2022-12-04T16:54:17;45.60;;;28.30;;
25509;SDS011;13413;52.336;21.200;2022-12-04T16:57:44;42.80;;;27.60;;
25509;SDS011;13413;52.336;21.200;2022-12-04T17:01:05;44.50;;;27.60;;
25509;SDS011;13413;52.336;21.200;2022-12-04T17:04:52;48.50;;;26.10;;
25509;SDS011;13413;52.336;21.200;2022-12-04T17:08:26;36.40;;;19.30;;
25509;SDS011;13413;52.336;21.200;2022-12-04T17:11:46;37.60;;;24.40;;
25509;SDS011;13413;52.336;21.200;2022-12-04T17:15:21;35.90;;;23.70;;
25509;SDS011;13413;52.336;21.200;2022-12-04T17:18:53;41.60;;;26.20;;
25509;SDS011;13413;52.336;21.200;2022-12-04T17:22:14;41.40;;;27.20;;
25509;SDS011;13413;52.336;21.200;2022-12-04T17:25:40;45.60;;;28.40;;
25509;SDS011;13413;52.336;21.200;2022-12-04T17:29:13;54.60;;;34.50;;
25509;SDS011;13413;52.336;21.200;2022-12-04T17:32:34;54.10;;;35.50;;
25509;SDS011;13413;52.336;21.200;2022-12-04T17:35:52;47.30;;;29.50;;
25509;SDS011;13413;52.336;21.200;2022-12-04T17:40:35;40.00;;;25.90;;
25509;SDS011;13413;52.336;21.200;2022-12-04T17:43:54;40.70;;;24.40;;
25509;SDS011;13413;52.336;21.200;2022-12-04T17:47:16;32.80;;;21.80;;
25509;SDS011;13413;52.336;21.200;2022-12-04T17:50:42;40.90;;;22.90;;
25509;SDS011;13413;52.336;21.200;2022-12-04T17:54:15;33.90;;;21.20;;
25509;SDS011;13413;52.336;21.200;2022-12-04T18:01:01;34.30;;;21.50;;
25509;SDS011;13413;52.336;21.200;2022-12-04T18:10:13;34.70;;;22.90;;
25509;SDS011;13413;52.336;21.200;2022-12-04T18:13:33;33.90;;;21.90;;
25509;SDS011;13413;52.336;21.200;2022-12-04T18:16:53;32.40;;;21.10;;
25509;SDS011;13413;52.336;21.200;2022-12-04T18:29:29;28.60;;;20.50;;
25509;SDS011;13413;52.336;21.200;2022-12-04T18:32:48;33.00;;;21.00;;
25509;SDS011;13413;52.336;21.200;2022-12-04T18:36:12;32.20;;;21.60;;
25509;SDS011;13413;52.336;21.200;2022-12-04T18:39:49;36.90;;;23.60;;
25509;SDS011;13413;52.336;21.200;2022-12-04T18:43:22;34.90;;;22.50;;
25509;SDS011;13413;52.336;21.200;2022-12-04T18:46:42;36.00;;;23.00;;
25509;SDS011;13413;52.336;21.200;2022-12-04T18:50:16;34.90;;;22.10;;
25509;SDS011;13413;52.336;21.200;2022-12-04T18:53:35;39.20;;;24.00;;
25509;SDS011;13413;52.336;21.200;2022-12-04T18:56:55;37.20;;;22.90;;
25509;SDS011;13413;52.336;21.200;2022-12-04T19:00:14;36.60;;;24.10;;
25509;SDS011;13413;52.336;21.200;2022-12-04T19:03:35;35.60;;;23.00;;
25509;SDS011;13413;52.336;21.200;2022-12-04T19:06:54;44.30;;;25.80;;
25509;SDS011;13413;52.336;21.200;2022-12-04T19:10:24;45.10;;;27.30;;
25509;SDS011;13413;52.336;21.200;2022-12-04T19:23:49;42.60;;;25.90;;
25509;SDS011;13413;52.336;21.200;2022-12-04T19:27:09;39.30;;;25.10;;
25509;SDS011;13413;52.336;21.200;2022-12-04T19:44:14;46.00;;;28.00;;
25509;SDS011;13413;52.336;21.200;2022-12-04T19:47:41;46.80;;;28.60;;
25509;SDS011;13413;52.336;21.200;2022-12-04T19:51:05;42.10;;;27.60;;
25509;SDS011;13413;52.336;21.200;2022-12-04T19:54:25;38.60;;;26.00;;
25509;SDS011;13413;52.336;21.200;2022-12-04T19:57:59;46.30;;;27.10;;
25509;SDS011;13413;52.336;21.200;2022-12-04T20:01:20;43.20;;;25.40;;
25509;SDS011;13413;52.336;21.200;2022-12-04T20:04:47;43.70;;;26.70;;
25509;SDS011;13413;52.336;21.200;2022-12-04T20:08:20;41.80;;;27.30;;
25509;SDS011;13413;52.336;21.200;2022-12-04T20:11:40;46.40;;;27.90;;
25509;SDS011;13413;52.336;21.200;2022-12-04T20:15:15;38.80;;;22.50;;
25509;SDS011;13413;52.336;21.200;2022-12-04T20:18:36;47.00;;;26.60;;
25509;SDS011;13413;52.336;21.200;2022-12-04T20:21:56;42.40;;;25.40;;
25509;SDS011;13413;52.336;21.200;2022-12-04T20:25:16;40.10;;;24.80;;
25509;SDS011;13413;52.336;21.200;2022-12-04T20:28:35;35.90;;;22.70;;
25509;SDS011;13413;52.336;21.200;2022-12-04T20:31:55;40.20;;;24.30;;
25509;SDS011;13413;52.336;21.200;2022-12-04T20:35:14;42.30;;;26.20;;
25509;SDS011;13413;52.336;21.200;2022-12-04T20:38:47;38.90;;;24.10;;
25509;SDS011;13413;52.336;21.200;2022-12-04T20:42:08;39.20;;;23.40;;
25509;SDS011;13413;52.336;21.200;2022-12-04T20:45:35;39.70;;;24.40;;
25509;SDS011;13413;52.336;21.200;2022-12-04T20:48:54;40.20;;;25.30;;
25509;SDS011;13413;52.336;21.200;2022-12-04T20:52:14;39.20;;;24.20;;
25509;SDS011;13413;52.336;21.200;2022-12-04T20:55:33;41.20;;;26.10;;
25509;SDS011;13413;52.336;21.200;2022-12-04T21:09:24;36.80;;;22.70;;
25509;SDS011;13413;52.336;21.200;2022-12-04T21:16:23;37.10;;;25.10;;
25509;SDS011;13413;52.336;21.200;2022-12-04T21:19:57;34.30;;;23.50;;
25509;SDS011;13413;52.336;21.200;2022-12-04T21:23:15;35.40;;;22.50;;
25509;SDS011;13413;52.336;21.200;2022-12-04T21:26:36;44.30;;;26.80;;
25509;SDS011;13413;52.336;21.200;2022-12-04T21:30:09;37.70;;;24.80;;
25509;SDS011;13413;52.336;21.200;2022-12-04T21:33:31;34.40;;;22.40;;
25509;SDS011;13413;52.336;21.200;2022-12-04T21:36:57;35.10;;;23.40;;
25509;SDS011;13413;52.336;21.200;2022-12-04T21:43:41;39.00;;;25.50;;
25509;SDS011;13413;52.336;21.200;2022-12-04T21:47:01;38.80;;;23.40;;
25509;SDS011;13413;52.336;21.200;2022-12-04T21:50:28;37.70;;;23.40;;
25509;SDS011;13413;52.336;21.200;2022-12-04T21:53:48;34.90;;;22.70;;
25509;SDS011;13413;52.336;21.200;2022-12-04T21:57:21;38.40;;;23.40;;
25509;SDS011;13413;52.336;21.200;2022-12-04T22:00:47;36.20;;;23.20;;
25509;SDS011;13413;52.336;21.200;2022-12-04T22:14:38;39.80;;;24.20;;
25509;SDS011;13413;52.336;21.200;2022-12-04T22:17:57;39.10;;;24.50;;
25509;SDS011;13413;52.336;21.200;2022-12-04T22:21:18;37.30;;;24.20;;
25509;SDS011;13413;52.336;21.200;2022-12-04T22:24:37;35.10;;;23.90;;
25509;SDS011;13413;52.336;21.200;2022-12-04T22:30:44;40.30;;;24.80;;
25509;SDS011;13413;52.336;21.200;2022-12-04T22:34:04;38.90;;;22.80;;
25509;SDS011;13413;52.336;21.200;2022-12-04T22:37:50;31.10;;;18.40;;
25509;SDS011;13413;52.336;21.200;2022-12-04T22:41:11;34.90;;;23.10;;
25509;SDS011;13413;52.336;21.200;2022-12-04T22:44:45;38.50;;;23.60;;
25509;SDS011;13413;52.336;21.200;2022-12-04T22:48:04;42.20;;;25.50;;
25509;SDS011;13413;52.336;21.200;2022-12-04T22:51:23;39.50;;;23.60;;
25509;SDS011;13413;52.336;21.200;2022-12-04T22:54:43;40.60;;;25.00;;
25509;SDS011;13413;52.336;21.200;2022-12-04T22:58:02;41.50;;;24.70;;
25509;SDS011;13413;52.336;21.200;2022-12-04T23:01:23;43.30;;;24.50;;
25509;SDS011;13413;52.336;21.200;2022-12-04T23:04:42;43.00;;;24.40;;
25509;SDS011;13413;52.336;21.200;2022-12-04T23:08:02;39.90;;;25.20;;
25509;SDS011;13413;52.336;21.200;2022-12-04T23:11:22;42.30;;;25.70;;
25509;SDS011;13413;52.336;21.200;2022-12-04T23:14:43;39.00;;;23.60;;
25509;SDS011;13413;52.336;21.200;2022-12-04T23:18:17;41.60;;;25.30;;
25509;SDS011;13413;52.336;21.200;2022-12-04T23:21:36;38.80;;;22.90;;
25509;SDS011;13413;52.336;21.200;2022-12-04T23:25:12;39.20;;;24.50;;
25509;SDS011;13413;52.336;21.200;2022-12-04T23:28:44;38.90;;;23.60;;
25509;SDS011;13413;52.336;21.200;2022-12-04T23:32:03;39.20;;;25.20;;
25509;SDS011;13413;52.336;21.200;2022-12-04T23:35:30;36.10;;;23.80;;
25509;SDS011;13413;52.336;21.200;2022-12-04T23:39:03;40.70;;;25.40;;
25509;SDS011;13413;52.336;21.200;2022-12-04T23:42:23;36.10;;;24.00;;
25509;SDS011;13413;52.336;21.200;2022-12-04T23:45:58;41.00;;;24.30;;
25509;SDS011;13413;52.336;21.200;2022-12-04T23:52:50;41.50;;;25.00;;
25509;SDS011;13413;52.336;21.200;2022-12-04T23:56:10;35.50;;;22.90;;
25509;SDS011;13413;52.336;21.200;2022-12-04T23:59:32;39.50;;;24.90;;
